createdAt,value
2018-05-26T00:01:30.532Z,96.60
2018-05-26T00:03:58.514Z,96.60
2018-05-26T00:06:26.713Z,96.40
2018-05-26T00:08:54.963Z,96.80
2018-05-26T00:11:26.229Z,96.70
2018-05-26T00:13:54.478Z,96.70
2018-05-26T00:16:22.780Z,96.70
2018-05-26T00:18:50.892Z,96.90
2018-05-26T00:21:18.973Z,96.70
2018-05-26T00:23:50.668Z,96.80
2018-05-26T00:26:18.772Z,97.30
2018-05-26T00:28:47.238Z,97.30
2018-05-26T00:31:16.594Z,97.30
2018-05-26T00:33:44.912Z,97.40
2018-05-26T00:36:13.342Z,97.50
2018-05-26T00:38:41.824Z,97.60
2018-05-26T00:41:11.918Z,97.60
2018-05-26T00:43:39.856Z,97.60
2018-05-26T00:46:08.007Z,97.60
2018-05-26T00:48:36.752Z,97.60
2018-05-26T00:51:04.902Z,97.20
2018-05-26T00:53:33.511Z,97.10
2018-05-26T00:56:02.134Z,97.30
2018-05-26T00:58:39.485Z,97.40
2018-05-26T01:01:07.778Z,97.40
2018-05-26T01:03:35.807Z,97.50
2018-05-26T01:06:04.365Z,97.40
2018-05-26T01:08:32.635Z,97.40
2018-05-26T01:11:00.640Z,97.60
2018-05-26T01:13:35.069Z,97.80
2018-05-26T01:16:03.388Z,97.60
2018-05-26T01:18:31.489Z,97.40
2018-05-26T01:20:59.853Z,97.60
2018-05-26T01:23:28.067Z,97.90
2018-05-26T01:26:10.737Z,98.00
2018-05-26T01:28:39.749Z,98.10
2018-05-26T01:31:07.981Z,98.10
2018-05-26T01:33:36.111Z,98.10
2018-05-26T01:36:04.780Z,98.10
2018-05-26T01:38:33.537Z,98.20
2018-05-26T01:41:02.074Z,98.30
2018-05-26T01:43:30.506Z,98.20
2018-05-26T01:45:59.126Z,98.00
2018-05-26T01:48:27.682Z,98.10
2018-05-26T01:50:56.258Z,98.30
2018-05-26T01:55:58.871Z,98.30
2018-05-26T01:58:26.987Z,98.40
2018-05-26T02:00:55.729Z,98.40
2018-05-26T02:03:24.216Z,98.30
2018-05-26T02:05:52.812Z,98.50
2018-05-26T02:08:21.286Z,98.50
2018-05-26T02:10:49.501Z,98.40
2018-05-26T02:13:17.947Z,98.30
2018-05-26T02:15:46.193Z,98.40
2018-05-26T02:18:14.961Z,98.50
2018-05-26T02:20:44.367Z,98.40
2018-05-26T02:23:12.979Z,98.50
2018-05-26T02:25:41.705Z,98.60
2018-05-26T02:28:11.421Z,98.70
2018-05-26T02:30:39.851Z,98.60
2018-05-26T02:33:08.463Z,98.60
2018-05-26T02:35:37.087Z,99.00
2018-05-26T02:38:05.425Z,98.70
2018-05-26T02:40:33.885Z,98.60
2018-05-26T02:43:02.500Z,98.70
2018-05-26T02:45:31.098Z,98.70
2018-05-26T02:47:59.410Z,98.80
2018-05-26T02:53:14.356Z,98.70
2018-05-26T02:55:42.884Z,98.50
2018-05-26T02:58:11.554Z,98.40
2018-05-26T03:00:40.731Z,98.60
2018-05-26T03:03:23.100Z,98.60
2018-05-26T03:05:57.206Z,98.90
2018-05-26T03:08:31.438Z,99.00
2018-05-26T03:11:05.618Z,98.30
2018-05-26T03:13:39.455Z,98.10
2018-05-26T03:16:07.843Z,98.20
2018-05-26T03:18:37.019Z,98.50
2018-05-26T03:21:05.463Z,98.50
2018-05-26T03:23:33.639Z,98.60
2018-05-26T03:26:02.283Z,98.80
2018-05-26T03:28:30.752Z,98.90
2018-05-26T03:30:59.031Z,98.90
2018-05-26T03:33:27.928Z,99.20
2018-05-26T03:35:56.609Z,99.20
2018-05-26T03:38:25.158Z,99.10
2018-05-26T03:40:55.016Z,99.10
2018-05-26T03:43:23.196Z,99.00
2018-05-26T03:45:52.805Z,99.10
2018-05-26T03:48:20.930Z,99.10
2018-05-26T03:50:50.178Z,99.10
2018-05-26T03:53:18.650Z,99.20
2018-05-26T03:56:00.798Z,99.20
2018-05-26T03:58:40.635Z,99.30
2018-05-26T04:01:09.102Z,99.30
2018-05-26T04:03:38.784Z,99.20
2018-05-26T04:06:10.649Z,99.20
2018-05-26T04:08:39.770Z,99.20
2018-05-26T04:11:07.947Z,99.20
2018-05-26T04:13:38.760Z,99.20
2018-05-26T04:16:06.933Z,99.20
2018-05-26T04:18:35.104Z,99.30
2018-05-26T04:21:03.658Z,99.30
2018-05-26T04:23:37.363Z,99.20
2018-05-26T04:26:05.300Z,99.20
2018-05-26T04:28:40.898Z,99.20
2018-05-26T04:31:09.136Z,99.30
2018-05-26T04:33:38.614Z,99.30
2018-05-26T04:36:06.926Z,99.30
2018-05-26T04:38:37.235Z,99.30
2018-05-26T04:41:05.583Z,99.10
2018-05-26T04:43:39.480Z,99.00
2018-05-26T04:46:07.630Z,99.00
2018-05-26T04:48:35.947Z,99.00
2018-05-26T04:51:06.560Z,99.00
2018-05-26T04:53:35.153Z,98.90
2018-05-26T04:56:09.330Z,99.00
2018-05-26T04:58:37.942Z,99.00
2018-05-26T05:01:06.306Z,98.80
2018-05-26T05:03:35.022Z,98.80
2018-05-26T05:06:09.902Z,98.80
2018-05-26T05:08:38.907Z,98.80
2018-05-26T05:11:07.725Z,98.70
2018-05-26T05:13:39.783Z,98.60
2018-05-26T05:16:08.087Z,98.20
2018-05-26T05:18:36.253Z,97.60
2018-05-26T05:21:05.065Z,97.30
2018-05-26T05:23:33.246Z,96.30
2018-05-26T05:26:03.159Z,94.10
2018-05-26T05:28:31.583Z,94.10
2018-05-26T05:31:00.442Z,94.30
2018-05-26T05:33:28.370Z,93.40
2018-05-26T05:35:56.577Z,92.80
2018-05-26T05:38:24.500Z,92.60
2018-05-26T05:40:53.310Z,91.70
2018-05-26T05:43:22.729Z,91.70
2018-05-26T05:45:51.065Z,91.20
2018-05-26T05:48:19.625Z,90.40
2018-05-26T05:50:48.291Z,90.30
2018-05-26T05:53:20.050Z,90.30
2018-05-26T05:55:52.164Z,89.70
2018-05-26T05:58:20.480Z,88.20
2018-05-26T06:00:48.862Z,88.20
2018-05-26T06:03:17.079Z,87.50
2018-05-26T06:05:48.971Z,87.00
2018-05-26T06:08:17.877Z,86.60
2018-05-26T06:10:47.244Z,86.50
2018-05-26T06:13:15.183Z,86.10
2018-05-26T06:15:49.654Z,85.60
2018-05-26T06:18:18.227Z,85.40
2018-05-26T06:20:49.575Z,84.40
2018-05-26T06:23:17.996Z,84.40
2018-05-26T06:25:46.331Z,84.40
2018-05-26T06:28:14.507Z,83.80
2018-05-26T06:30:42.641Z,84.00
2018-05-26T06:33:11.040Z,83.50
2018-05-26T06:35:39.170Z,83.50
2018-05-26T06:38:07.564Z,82.80
2018-05-26T06:40:35.826Z,82.90
2018-05-26T06:43:03.925Z,82.40
2018-05-26T06:45:31.970Z,80.70
2018-05-26T06:48:00.276Z,81.10
2018-05-26T06:50:28.639Z,80.40
2018-05-26T06:52:56.956Z,79.60
2018-05-26T06:55:28.724Z,80.10
2018-05-26T06:57:57.044Z,80.40
2018-05-26T07:00:25.551Z,80.40
2018-05-26T07:02:53.819Z,79.70
2018-05-26T07:05:28.938Z,79.70
2018-05-26T07:07:56.670Z,79.40
2018-05-26T07:10:24.429Z,79.70
2018-05-26T07:12:53.169Z,79.20
2018-05-26T07:15:21.315Z,78.80
2018-05-26T07:17:50.412Z,77.70
2018-05-26T07:20:19.546Z,77.60
2018-05-26T07:22:47.266Z,77.60
2018-05-26T07:25:15.314Z,77.00
2018-05-26T07:27:43.298Z,77.20
2018-05-26T07:30:12.127Z,77.40
2018-05-26T07:32:39.894Z,77.30
2018-05-26T07:35:08.074Z,76.80
2018-05-26T07:37:37.004Z,76.10
2018-05-26T07:40:05.103Z,76.50
2018-05-26T07:42:32.741Z,76.60
2018-05-26T07:45:00.665Z,76.60
2018-05-26T07:47:28.529Z,76.30
2018-05-26T07:49:56.465Z,75.50
2018-05-26T07:52:24.451Z,75.90
2018-05-26T07:54:55.307Z,74.90
2018-05-26T07:57:23.346Z,74.90
2018-05-26T07:59:51.375Z,75.10
2018-05-26T08:02:19.912Z,75.10
2018-05-26T08:04:54.853Z,74.90
2018-05-26T08:07:22.718Z,74.60
2018-05-26T08:09:51.503Z,74.10
2018-05-26T08:12:23.362Z,73.80
2018-05-26T08:14:51.440Z,73.80
2018-05-26T08:17:19.671Z,73.40
2018-05-26T08:19:48.632Z,72.40
2018-05-26T08:22:16.631Z,72.90
2018-05-26T08:24:44.805Z,73.10
2018-05-26T08:27:20.531Z,71.60
2018-05-26T08:32:21.868Z,73.10
2018-05-26T08:34:49.882Z,72.20
2018-05-26T08:37:17.710Z,72.60
2018-05-26T08:39:45.641Z,72.70
2018-05-26T08:42:13.854Z,71.80
2018-05-26T08:44:41.700Z,71.60
2018-05-26T08:47:09.541Z,71.10
2018-05-26T08:49:37.331Z,71.50
2018-05-26T08:52:05.097Z,69.90
2018-05-26T08:54:33.087Z,69.70
2018-05-26T08:57:00.819Z,69.30
2018-05-26T08:59:28.898Z,68.80
2018-05-26T09:01:57.698Z,68.50
2018-05-26T09:04:26.090Z,68.40
2018-05-26T09:06:54.057Z,67.80
2018-05-26T09:09:36.998Z,68.30
2018-05-26T09:12:05.259Z,66.10
2018-05-26T09:14:47.680Z,66.10
2018-05-26T09:17:15.639Z,64.50
2018-05-26T09:19:47.227Z,63.00
2018-05-26T09:22:14.927Z,61.70
2018-05-26T09:24:42.718Z,59.70
2018-05-26T09:27:10.884Z,59.30
2018-05-26T09:29:38.987Z,59.10
2018-05-26T09:32:20.420Z,59.10
2018-05-26T09:34:48.237Z,58.90
2018-05-26T09:37:16.122Z,59.60
2018-05-26T09:39:44.272Z,57.90
2018-05-26T09:42:12.044Z,57.90
2018-05-26T09:44:39.962Z,58.40
2018-05-26T09:47:07.744Z,57.70
2018-05-26T09:49:39.201Z,57.70
2018-05-26T09:52:07.000Z,57.00
2018-05-26T09:54:34.529Z,56.20
2018-05-26T09:57:07.308Z,55.90
2018-05-26T09:59:34.940Z,56.40
2018-05-26T10:02:03.176Z,57.90
2018-05-26T10:04:34.644Z,56.90
2018-05-26T10:07:02.802Z,56.80
2018-05-26T10:09:34.206Z,56.80
2018-05-26T10:12:01.934Z,56.20
2018-05-26T10:14:30.252Z,55.80
2018-05-26T10:16:58.230Z,55.20
2018-05-26T10:19:30.068Z,55.30
2018-05-26T10:21:57.783Z,55.70
2018-05-26T10:24:25.573Z,55.70
2018-05-26T10:26:54.420Z,54.90
2018-05-26T10:29:22.280Z,54.90
2018-05-26T10:31:55.431Z,55.20
2018-05-26T10:34:23.743Z,53.40
2018-05-26T10:39:26.840Z,53.00
2018-05-26T10:41:54.592Z,53.00
2018-05-26T10:44:22.365Z,52.90
2018-05-26T10:46:50.223Z,53.30
2018-05-26T10:49:18.391Z,52.80
2018-05-26T10:51:56.556Z,53.30
2018-05-26T10:54:24.266Z,52.40
2018-05-26T10:56:52.334Z,52.90
2018-05-26T10:59:20.332Z,52.80
2018-05-26T11:01:58.103Z,52.80
2018-05-26T11:04:26.389Z,51.70
2018-05-26T11:06:54.333Z,51.70
2018-05-26T11:09:22.596Z,50.50
2018-05-26T11:11:50.268Z,50.50
2018-05-26T11:14:20.142Z,50.50
2018-05-26T11:16:47.822Z,50.30
2018-05-26T11:19:25.270Z,50.90
2018-05-26T11:21:53.150Z,50.20
2018-05-26T11:24:20.972Z,50.20
2018-05-26T11:26:48.800Z,50.20
2018-05-26T11:29:18.280Z,50.20
2018-05-26T11:31:45.983Z,49.30
2018-05-26T11:34:13.752Z,48.70
2018-05-26T11:36:41.516Z,49.30
2018-05-26T11:39:09.291Z,48.30
2018-05-26T11:41:37.043Z,48.20
2018-05-26T11:44:04.771Z,47.90
2018-05-26T11:46:32.507Z,48.90
2018-05-26T11:49:01.011Z,48.50
2018-05-26T11:51:29.169Z,48.00
2018-05-26T11:53:57.786Z,47.40
2018-05-26T11:56:25.361Z,47.90
2018-05-26T11:58:52.931Z,48.30
2018-05-26T12:01:21.077Z,47.80
2018-05-26T12:03:49.244Z,47.40
2018-05-26T12:06:17.481Z,47.10
2018-05-26T12:08:53.032Z,47.10
2018-05-26T12:11:20.826Z,46.90
2018-05-26T12:13:59.735Z,47.40
2018-05-26T12:16:32.782Z,47.40
2018-05-26T12:19:00.610Z,48.20
2018-05-26T12:21:32.898Z,48.00
2018-05-26T12:24:00.788Z,48.00
2018-05-26T12:26:33.500Z,47.50
2018-05-26T12:29:01.156Z,46.60
2018-05-26T12:31:28.908Z,46.80
2018-05-26T12:33:56.744Z,47.70
2018-05-26T12:36:24.876Z,45.90
2018-05-26T12:38:52.535Z,45.90
2018-05-26T12:41:20.369Z,47.70
2018-05-26T12:43:48.207Z,46.90
2018-05-26T12:46:16.423Z,46.60
2018-05-26T12:48:44.196Z,46.60
2018-05-26T12:51:12.030Z,45.90
2018-05-26T12:53:39.921Z,46.20
2018-05-26T12:56:07.712Z,46.90
2018-05-26T12:58:36.019Z,46.00
2018-05-26T13:01:04.359Z,47.00
2018-05-26T13:03:32.209Z,47.00
2018-05-26T13:05:59.903Z,47.40
2018-05-26T13:08:27.743Z,47.80
2018-05-26T13:10:55.594Z,49.40
2018-05-26T13:13:23.404Z,49.20
2018-05-26T13:15:51.409Z,48.50
2018-05-26T13:18:20.091Z,48.50
2018-05-26T13:20:53.394Z,48.50
2018-05-26T13:23:21.276Z,49.40
2018-05-26T13:25:49.090Z,51.70
2018-05-26T13:28:28.068Z,52.60
2018-05-26T13:30:55.849Z,53.00
2018-05-26T13:33:30.452Z,53.90
2018-05-26T13:35:58.878Z,54.30
2018-05-26T13:38:26.756Z,54.30
2018-05-26T13:40:56.725Z,53.90
2018-05-26T13:45:57.859Z,50.20
2018-05-26T13:48:25.675Z,49.40
2018-05-26T13:50:53.477Z,48.20
2018-05-26T13:53:21.452Z,46.90
2018-05-26T13:55:53.829Z,46.90
2018-05-26T13:58:21.560Z,45.90
2018-05-26T14:00:49.305Z,46.60
2018-05-26T14:03:36.572Z,47.10
2018-05-26T14:06:05.172Z,45.30
2018-05-26T14:08:33.941Z,45.90
2018-05-26T14:11:02.362Z,45.40
2018-05-26T14:13:30.938Z,44.90
2018-05-26T14:16:00.037Z,45.50
2018-05-26T14:18:28.404Z,45.40
2018-05-26T14:21:00.746Z,44.40
2018-05-26T14:23:28.948Z,44.60
2018-05-26T14:26:09.119Z,45.80
2018-05-26T14:28:37.813Z,46.10
2018-05-26T14:31:08.015Z,45.30
2018-05-26T14:33:36.269Z,45.30
2018-05-26T14:36:05.029Z,45.70
2018-05-26T14:38:37.232Z,45.80
2018-05-26T14:41:05.879Z,46.60
2018-05-26T14:43:34.556Z,45.50
2018-05-26T14:46:02.146Z,45.20
2018-05-26T14:48:30.745Z,46.20
2018-05-26T14:51:01.523Z,46.40
2018-05-26T14:53:30.588Z,45.30
2018-05-26T14:55:59.523Z,45.30
2018-05-26T14:58:27.674Z,45.50
2018-05-26T15:00:55.828Z,46.20
2018-05-26T15:03:24.432Z,47.10
2018-05-26T15:05:54.776Z,46.60
2018-05-26T15:08:23.068Z,46.60
2018-05-26T15:10:51.620Z,46.70
2018-05-26T15:13:20.395Z,46.40
2018-05-26T15:15:50.420Z,45.70
2018-05-26T15:18:19.276Z,45.50
2018-05-26T15:20:50.324Z,46.90
2018-05-26T15:23:17.876Z,46.90
2018-05-26T15:25:46.934Z,46.00
2018-05-26T15:28:15.639Z,46.00
2018-05-26T15:30:45.424Z,46.00
2018-05-26T15:33:14.334Z,46.60
2018-05-26T15:35:44.950Z,45.70
2018-05-26T15:38:14.048Z,45.70
2018-05-26T15:40:47.061Z,45.40
2018-05-26T15:43:15.781Z,46.20
2018-05-26T15:45:51.203Z,46.40
2018-05-26T15:48:19.845Z,47.70
2018-05-26T15:50:48.669Z,48.70
2018-05-26T15:53:21.079Z,49.70
2018-05-26T15:55:49.512Z,50.50
2018-05-26T15:58:18.997Z,50.00
2018-05-26T16:00:47.887Z,50.00
2018-05-26T16:03:16.311Z,50.80
2018-05-26T16:05:46.172Z,50.80
2018-05-26T16:08:18.317Z,51.10
2018-05-26T16:10:47.393Z,51.20
2018-05-26T16:13:18.691Z,51.20
2018-05-26T16:15:46.975Z,50.20
2018-05-26T16:18:15.596Z,50.10
2018-05-26T16:20:54.893Z,49.90
2018-05-26T16:23:23.681Z,49.90
2018-05-26T16:25:53.130Z,49.10
2018-05-26T16:28:22.463Z,48.90
2018-05-26T16:30:50.739Z,48.90
2018-05-26T16:33:18.867Z,49.90
2018-05-26T16:35:50.464Z,48.70
2018-05-26T16:38:18.011Z,48.60
2018-05-26T16:40:47.525Z,49.40
2018-05-26T16:43:15.613Z,48.80
2018-05-26T16:45:48.048Z,49.20
2018-05-26T16:48:15.628Z,49.90
2018-05-26T16:50:43.519Z,50.20
2018-05-26T16:53:16.951Z,50.00
2018-05-26T16:55:45.858Z,50.10
2018-05-26T16:58:30.361Z,51.00
2018-05-26T17:00:58.335Z,51.20
2018-05-26T17:03:36.214Z,51.70
2018-05-26T17:06:04.487Z,51.90
2018-05-26T17:08:32.631Z,52.20
2018-05-26T17:11:00.406Z,52.60
2018-05-26T17:13:28.676Z,53.50
2018-05-26T17:15:59.069Z,53.50
2018-05-26T17:18:27.398Z,53.60
2018-05-26T17:20:56.228Z,53.90
2018-05-26T17:23:25.016Z,53.90
2018-05-26T17:25:53.636Z,54.20
2018-05-26T17:28:23.180Z,55.10
2018-05-26T17:30:52.172Z,55.30
2018-05-26T17:33:20.830Z,56.00
2018-05-26T17:35:49.948Z,56.40
2018-05-26T17:38:18.088Z,55.90
2018-05-26T17:40:48.006Z,55.90
2018-05-26T17:43:16.512Z,55.30
2018-05-26T17:45:45.045Z,55.70
2018-05-26T17:48:12.588Z,55.30
2018-05-26T17:50:41.257Z,55.70
2018-05-26T17:53:09.482Z,55.70
2018-05-26T17:55:37.919Z,56.00
2018-05-26T17:58:05.557Z,55.70
2018-05-26T18:00:35.375Z,56.70
2018-05-26T18:03:05.876Z,56.60
2018-05-26T18:08:15.825Z,58.00
2018-05-26T18:10:43.754Z,58.20
2018-05-26T18:13:16.795Z,58.80
2018-05-26T18:15:45.535Z,59.20
2018-05-26T18:18:15.516Z,59.90
2018-05-26T18:20:43.555Z,60.50
2018-05-26T18:23:11.235Z,60.50
2018-05-26T18:25:40.168Z,60.70
2018-05-26T18:28:09.535Z,60.80
2018-05-26T18:30:39.117Z,60.80
2018-05-26T18:33:16.292Z,60.70
2018-05-26T18:35:44.561Z,61.20
2018-05-26T18:38:14.493Z,61.00
2018-05-26T18:40:43.412Z,61.20
2018-05-26T18:43:30.065Z,61.30
2018-05-26T18:45:59.653Z,61.60
2018-05-26T18:48:39.152Z,61.80
2018-05-26T18:51:06.844Z,61.80
2018-05-26T18:53:36.970Z,61.90
2018-05-26T18:56:06.466Z,62.10
2018-05-26T18:58:39.204Z,62.60
2018-05-26T19:01:30.659Z,62.60
2018-05-26T19:04:00.716Z,63.00
2018-05-26T19:06:30.362Z,63.00
2018-05-26T19:11:38.455Z,63.10
2018-05-26T19:14:06.610Z,63.20
2018-05-26T19:16:34.155Z,63.50
2018-05-26T19:19:04.492Z,63.80
2018-05-26T19:21:32.100Z,63.80
2018-05-26T19:24:01.604Z,63.80
2018-05-26T19:26:29.192Z,63.90
2018-05-26T19:28:57.654Z,64.10
2018-05-26T19:31:26.498Z,64.30
2018-05-26T19:34:05.985Z,64.60
2018-05-26T19:36:33.551Z,64.80
2018-05-26T19:39:07.147Z,65.00
2018-05-26T19:41:34.679Z,65.10
2018-05-26T19:44:09.835Z,65.30
2018-05-26T19:46:38.905Z,65.90
2018-05-26T19:49:08.892Z,65.90
2018-05-26T19:51:37.920Z,66.10
2018-05-26T19:54:11.175Z,66.30
2018-05-26T19:56:40.500Z,66.50
2018-05-26T19:59:10.592Z,66.80
2018-05-26T20:01:39.748Z,67.40
2018-05-26T20:04:09.729Z,67.80
2018-05-26T20:06:38.888Z,68.10
2018-05-26T20:09:09.104Z,67.50
2018-05-26T20:11:41.653Z,67.80
2018-05-26T20:14:12.688Z,68.40
2018-05-26T20:16:42.562Z,68.40
2018-05-26T20:19:12.147Z,68.70
2018-05-26T20:21:41.824Z,68.40
2018-05-26T20:24:12.146Z,69.30
2018-05-26T20:26:41.604Z,69.30
2018-05-26T20:29:11.520Z,69.00
2018-05-26T20:31:41.032Z,69.30
2018-05-26T20:34:11.016Z,69.30
2018-05-26T20:36:41.123Z,69.80
2018-05-26T20:39:10.969Z,70.10
2018-05-26T20:41:40.842Z,70.90
2018-05-26T20:44:11.411Z,70.70
2018-05-26T20:46:42.749Z,70.00
2018-05-26T20:49:12.543Z,70.50
2018-05-26T20:51:42.735Z,70.50
2018-05-26T20:54:10.869Z,71.00
2018-05-26T20:56:38.713Z,70.60
2018-05-26T20:59:10.029Z,70.70
2018-05-26T21:01:40.520Z,70.90
2018-05-26T21:04:11.758Z,71.20
2018-05-26T21:06:42.053Z,71.60
2018-05-26T21:09:10.517Z,72.10
2018-05-26T21:11:43.719Z,72.60
2018-05-26T21:14:13.687Z,72.70
2018-05-26T21:16:42.774Z,72.70
2018-05-26T21:19:18.283Z,72.90
2018-05-26T21:21:46.047Z,72.00
2018-05-26T21:24:15.916Z,72.00
2018-05-26T21:26:45.647Z,71.70
2018-05-26T21:29:16.317Z,72.00
2018-05-26T21:31:47.548Z,72.00
2018-05-26T21:34:18.290Z,72.00
2018-05-26T21:36:49.541Z,72.20
2018-05-26T21:39:20.242Z,73.40
2018-05-26T21:41:48.326Z,73.40
2018-05-26T21:44:17.434Z,73.70
2018-05-26T21:46:45.047Z,73.30
2018-05-26T21:49:12.660Z,73.90
2018-05-26T21:51:44.814Z,73.70
2018-05-26T21:54:12.825Z,73.70
2018-05-26T21:56:42.537Z,73.90
2018-05-26T21:59:11.384Z,73.90
2018-05-26T22:01:41.752Z,73.90
2018-05-26T22:04:11.702Z,73.90
2018-05-26T22:06:39.613Z,73.90
2018-05-26T22:09:19.549Z,74.50
2018-05-26T22:11:48.923Z,74.80
2018-05-26T22:14:18.786Z,74.80
2018-05-26T22:16:47.672Z,75.10
2018-05-26T22:19:17.575Z,74.90
2018-05-26T22:21:48.242Z,75.40
2018-05-26T22:24:18.543Z,75.10
2018-05-26T22:26:47.886Z,75.10
2018-05-26T22:29:19.742Z,74.60
2018-05-26T22:31:49.962Z,75.30
2018-05-26T22:34:20.802Z,75.30
2018-05-26T22:36:50.260Z,75.30
2018-05-26T22:39:21.921Z,75.30
2018-05-26T22:41:51.901Z,75.40
2018-05-26T22:44:20.980Z,75.40
2018-05-26T22:46:50.224Z,75.50
2018-05-26T22:49:23.143Z,75.30
2018-05-26T22:51:52.566Z,75.70
2018-05-26T22:54:23.172Z,75.60
2018-05-26T22:56:52.655Z,76.00
2018-05-26T22:59:21.977Z,76.00
2018-05-26T23:01:54.506Z,76.20
2018-05-26T23:04:23.996Z,75.90
2018-05-26T23:06:52.841Z,76.00
2018-05-26T23:09:24.577Z,76.00
2018-05-26T23:11:54.524Z,76.20
2018-05-26T23:17:00.067Z,76.20
2018-05-26T23:19:28.977Z,76.30
2018-05-26T23:21:58.939Z,76.10
2018-05-26T23:24:28.113Z,76.00
2018-05-26T23:26:57.093Z,76.20
2018-05-26T23:29:26.070Z,76.20
2018-05-26T23:31:56.051Z,76.30
2018-05-26T23:34:25.596Z,76.30
2018-05-26T23:36:54.947Z,76.30
2018-05-26T23:39:24.651Z,76.50
2018-05-26T23:41:55.104Z,76.40
2018-05-26T23:44:29.111Z,76.40
2018-05-26T23:46:59.182Z,76.80
2018-05-26T23:49:28.938Z,76.80
2018-05-26T23:51:58.674Z,76.70
2018-05-26T23:54:32.109Z,76.60
2018-05-26T23:57:01.988Z,76.70
2018-05-26T23:59:35.757Z,77.10
